Stolt Effort — ZCSP6 — position and weather

sailwx.info

Track history (hours):
 
Tides and Currents Weather Stations Pressure Air Temp Water Temp Dewpoint Dewpoint Depression Visibility Wind Speed Wind Dir Waves Ship Positions

Stolt Effort

Last reported at 2018-Apr-24 19:09 UTC. Time now 2018-Apr-26 09:40 UTC.
Position N 09°11' W 079°52'.

Length 176 m; draft 11.9 m.

Type: Ship. MMSI: 319445000.

Date/timePositionNaut miles runAvg speedWind from/ knotsBaromVisibWave heightAir tempDewpointWater temp
2018-Apr-24 19:09N 09°11' W 079°52'1 6.9
2018-Apr-24 18:58N 09°11' W 079°53'3 0.5
2018-Apr-24 12:51N 09°13' W 079°56'0 0.6
2018-Apr-24 12:26N 09°13' W 079°56'2 5.1
2018-Apr-24 12:00N 09°15' W 079°55'1 2.7
2018-Apr-24 11:30N 09°16' W 079°55'0 0.4
2018-Apr-24 11:00N 09°16' W 079°55'0 0.6
2018-Apr-24 10:24N 09°17' W 079°55'0 1.1
2018-Apr-24 09:59N 09°17' W 079°55'1 3.1
2018-Apr-24 09:30N 09°19' W 079°55'2 3.9
2018-Apr-24 09:00N 09°21' W 079°55'3 5.9
2018-Apr-24 08:30N 09°24' W 079°55'3 5.1
2018-Apr-24 08:00N 09°25' W 079°57'0 0.3
2018-Apr-24 07:29N 09°25' W 079°57'0 0.0
2018-Apr-24 06:59N 09°25' W 079°57'0 0.0
2018-Apr-24 06:29N 09°25' W 079°57'0 0.0
2018-Apr-24 05:59N 09°25' W 079°57'0 0.0
2018-Apr-24 05:29N 09°25' W 079°57'0 0.0
2018-Apr-24 04:56N 09°25' W 079°57'0 0.0
2018-Apr-24 04:29N 09°25' W 079°57'0 0.0
2018-Apr-24 03:59N 09°25' W 079°57'0 0.0
2018-Apr-24 03:29N 09°25' W 079°57'0 0.0
2018-Apr-24 02:59N 09°25' W 079°57'0 0.0
2018-Apr-24 02:29N 09°25' W 079°57'0 0.0
2018-Apr-24 01:59N 09°25' W 079°57'0 0.0
2018-Apr-24 01:29N 09°25' W 079°57'0 0.0
2018-Apr-24 00:59N 09°25' W 079°57'0 0.0
2018-Apr-24 00:29N 09°25' W 079°57'0 0.0
2018-Apr-23 23:59N 09°25' W 079°57'0 0.0
2018-Apr-23 23:29N 09°25' W 079°57'0 0.0
2018-Apr-23 22:59N 09°25' W 079°57'0 0.0
2018-Apr-23 22:29N 09°25' W 079°57'0 0.0
2018-Apr-23 21:59N 09°25' W 079°57'0 0.0
2018-Apr-23 21:29N 09°25' W 079°57'0 0.0
2018-Apr-23 20:50N 09°25' W 079°57'0 0.0
2018-Apr-23 20:26N 09°25' W 079°57'0 0.0
2018-Apr-23 19:59N 09°25' W 079°57'0 0.0
2018-Apr-23 19:29N 09°25' W 079°57'0 0.0
2018-Apr-23 18:56N 09°25' W 079°57'0 0.0
2018-Apr-23 18:29N 09°25' W 079°57'0 0.0
2018-Apr-23 17:56N 09°25' W 079°57'0 0.0
2018-Apr-23 17:29N 09°25' W 079°57'0 0.0
2018-Apr-23 16:59N 09°25' W 079°57'0 0.0
2018-Apr-23 16:29N 09°25' W 079°57'0 0.0
2018-Apr-23 15:59N 09°25' W 079°57'0 0.0
2018-Apr-23 15:26N 09°25' W 079°57'0 0.0
2018-Apr-23 14:59N 09°25' W 079°57'0 0.0
2018-Apr-23 14:29N 09°25' W 079°57'0 0.4
2018-Apr-23 13:54N 09°26' W 079°57'1 3.5
2018-Apr-23 13:30N 09°27' W 079°56'3 5.3
2018-Apr-23 13:00N 09°29' W 079°55'  
2018-Apr-18 12:48N 27°08' W 093°49'1512.4
2018-Apr-18 11:38N 27°17' W 094°02'4410.6
2018-Apr-18 07:32N 27°55' W 094°25'111.2
2018-Apr-18 07:29N 27°56' W 094°25'2710.9
2018-Apr-18 05:03N 28°19' W 094°39'111.7
2018-Apr-18 04:58N 28°20' W 094°40'4511.7
2018-Apr-18 01:06N 28°53' W 095°15'410.7
2018-Apr-18 00:42N 28°56' W 095°18'0 0.0
2018-Apr-17 03:45N 28°57' W 095°19'4 9.4
2018-Apr-17 03:18N 28°54' W 095°15'16 7.2
2018-Apr-17 01:03N 28°50' W 094°57'511.7
2018-Apr-17 00:36N 28°53' W 094°52'29 7.0
2018-Apr-16 20:31N 29°21' W 094°47'112.0
2018-Apr-16 20:27N 29°22' W 094°48'510.7
2018-Apr-16 20:00N 29°26' W 094°50'611.2
2018-Apr-16 19:30N 29°31' W 094°53'510.9
2018-Apr-16 19:00N 29°35' W 094°56'3 6.6
2018-Apr-16 18:30N 29°37' W 094°60'1 2.3
2018-Apr-16 18:00N 29°37' W 095°01'0 0.0
2018-Apr-16 17:30N 29°37' W 095°01'0 0.0
2018-Apr-16 17:00N 29°37' W 095°01'0 0.0
2018-Apr-16 16:30N 29°37' W 095°01'0 0.0
2018-Apr-16 16:00N 29°37' W 095°01'0 0.0
2018-Apr-16 15:30N 29°37' W 095°01'0 0.0
2018-Apr-16 15:00N 29°37' W 095°01'0 0.0
2018-Apr-16 14:30N 29°37' W 095°01'0 0.0
2018-Apr-16 14:00N 29°37' W 095°01'0 0.0
2018-Apr-16 13:30N 29°37' W 095°01'0 0.0
2018-Apr-16 13:00N 29°37' W 095°01'0 0.0
2018-Apr-16 12:30N 29°37' W 095°01'0 0.0
2018-Apr-16 12:00N 29°37' W 095°01'0 0.0
2018-Apr-16 11:30N 29°37' W 095°01'0 0.0
2018-Apr-16 11:00N 29°37' W 095°01'0 0.0
2018-Apr-16 10:27N 29°37' W 095°01'0 0.0
2018-Apr-16 10:00N 29°37' W 095°01'0 0.0
2018-Apr-16 09:30N 29°37' W 095°01'0 0.0
2018-Apr-16 08:57N 29°37' W 095°01'0 0.0
2018-Apr-16 08:27N 29°37' W 095°01'0 0.0
2018-Apr-16 08:00N 29°37' W 095°01'0 0.0
2018-Apr-16 07:30N 29°37' W 095°01'0 0.0
2018-Apr-16 07:00N 29°37' W 095°01'0 0.0
2018-Apr-16 06:30N 29°37' W 095°01'0 0.0
2018-Apr-16 06:00N 29°37' W 095°01'0 0.0
2018-Apr-16 05:30N 29°37' W 095°01'0 0.0
2018-Apr-16 05:00N 29°37' W 095°01'0 0.0
2018-Apr-16 04:30N 29°37' W 095°01'0 0.0
2018-Apr-16 04:00N 29°37' W 095°01'0 0.0
2018-Apr-16 03:30N 29°37' W 095°01'0 0.0
2018-Apr-16 02:57N 29°37' W 095°01'0 0.0
2018-Apr-16 02:30N 29°37' W 095°01'0 0.0
2018-Apr-16 02:00N 29°37' W 095°01'0 0.0
2018-Apr-16 01:30N 29°37' W 095°01'0 0.0
2018-Apr-16 01:00N 29°37' W 095°01'0 0.0
2018-Apr-16 00:30N 29°37' W 095°01'0 0.0
2018-Apr-16 00:00N 29°37' W 095°01'0 0.0
2018-Apr-15 23:30N 29°37' W 095°01'0 0.0
2018-Apr-15 23:00N 29°37' W 095°01'0 0.0
2018-Apr-15 22:30N 29°37' W 095°01'0 0.0
2018-Apr-15 22:00N 29°37' W 095°01'0 0.0
2018-Apr-15 21:30N 29°37' W 095°01'0 0.0
2018-Apr-15 21:00N 29°37' W 095°01'0 0.0
2018-Apr-15 20:30N 29°37' W 095°01'0 0.0
2018-Apr-15 20:00N 29°37' W 095°01'0 0.0
2018-Apr-15 19:30N 29°37' W 095°01'0 0.0
2018-Apr-15 19:00N 29°37' W 095°01'0 0.0
2018-Apr-15 18:30N 29°37' W 095°01'0 0.0
2018-Apr-15 17:57N 29°37' W 095°01'0 0.0
2018-Apr-15 17:30N 29°37' W 095°01'0 0.0
2018-Apr-15 17:00N 29°37' W 095°01'0 0.0
2018-Apr-15 16:30N 29°37' W 095°01'0 0.0
2018-Apr-15 16:00N 29°37' W 095°01'0 0.0
2018-Apr-15 15:30N 29°37' W 095°01'0 0.0
2018-Apr-15 15:00N 29°37' W 095°01'0 0.0
2018-Apr-15 14:30N 29°37' W 095°01'0 0.0
2018-Apr-15 14:00N 29°37' W 095°01'0 0.0
2018-Apr-15 13:30N 29°37' W 095°01'0 0.0
2018-Apr-15 13:00N 29°37' W 095°01'0 0.0
2018-Apr-15 12:30N 29°37' W 095°01'0 0.0
2018-Apr-15 12:00N 29°37' W 095°01'0 0.0
2018-Apr-15 11:30N 29°37' W 095°01'0 0.0
2018-Apr-15 11:00N 29°37' W 095°01'0 0.0
2018-Apr-15 10:30N 29°37' W 095°01'0 0.0
2018-Apr-15 10:00N 29°37' W 095°01'0 0.0
2018-Apr-15 09:30N 29°37' W 095°01'0 0.0
2018-Apr-15 09:00N 29°37' W 095°01'0 0.0
2018-Apr-15 08:30N 29°37' W 095°01'0 0.0
2018-Apr-15 08:00N 29°37' W 095°01'0 0.0
2018-Apr-15 07:30N 29°37' W 095°01'0 0.0
2018-Apr-15 07:00N 29°37' W 095°01'0 0.0
2018-Apr-15 06:30N 29°37' W 095°01'0 0.0
2018-Apr-15 06:00N 29°37' W 095°01'0 0.0
2018-Apr-15 05:30N 29°37' W 095°01'0 0.0
2018-Apr-15 05:00N 29°37' W 095°01'0 0.0
2018-Apr-15 04:30N 29°37' W 095°01'0 0.0
2018-Apr-15 04:00N 29°37' W 095°01'0 0.0
2018-Apr-15 03:30N 29°37' W 095°01'0 0.0
2018-Apr-15 03:00N 29°37' W 095°01'0 0.0
2018-Apr-15 02:30N 29°37' W 095°01'0 0.0
2018-Apr-15 02:00N 29°37' W 095°01'0 0.0
2018-Apr-15 01:30N 29°37' W 095°01'0 0.0
2018-Apr-15 01:00N 29°37' W 095°01'0 0.0
2018-Apr-15 00:30N 29°37' W 095°01'0 0.0
2018-Apr-15 00:00N 29°37' W 095°01'0 0.0
2018-Apr-14 23:30N 29°37' W 095°01'0 0.0
2018-Apr-14 23:00N 29°37' W 095°01'0 0.0
2018-Apr-14 22:27N 29°37' W 095°01'0 0.0
2018-Apr-14 22:00N 29°37' W 095°01'0 0.0
2018-Apr-14 21:30N 29°37' W 095°01'0 0.0
2018-Apr-14 21:00N 29°37' W 095°01'0 0.0
2018-Apr-14 20:30N 29°37' W 095°01'0 0.0
2018-Apr-14 20:00N 29°37' W 095°01'0 0.0
2018-Apr-14 19:30N 29°37' W 095°01'  
Track history (hours):
 
Tides and Currents Weather Stations Pressure Air Temp Water Temp Dewpoint Dewpoint Depression Visibility Wind Speed Wind Dir Waves Ship Positions

Stolt Effort

Last reported at 2018-Apr-24 19:09 UTC. Time now 2018-Apr-26 09:40 UTC.
Position N 09°11' W 079°52'.

Length 176 m; draft 11.9 m.

Type: Ship. MMSI: 319445000.

Date/timePositionNaut miles runAvg speedWind from/ knotsBaromVisibWave heightAir tempDewpointWater temp
2018-Apr-24 19:09N 09°11' W 079°52'1 6.9
2018-Apr-24 18:58N 09°11' W 079°53'3 0.5
2018-Apr-24 12:51N 09°13' W 079°56'0 0.6
2018-Apr-24 12:26N 09°13' W 079°56'2 5.1
2018-Apr-24 12:00N 09°15' W 079°55'1 2.7
2018-Apr-24 11:30N 09°16' W 079°55'0 0.4
2018-Apr-24 11:00N 09°16' W 079°55'0 0.6
2018-Apr-24 10:24N 09°17' W 079°55'0 1.1
2018-Apr-24 09:59N 09°17' W 079°55'1 3.1
2018-Apr-24 09:30N 09°19' W 079°55'2 3.9
2018-Apr-24 09:00N 09°21' W 079°55'3 5.9
2018-Apr-24 08:30N 09°24' W 079°55'3 5.1
2018-Apr-24 08:00N 09°25' W 079°57'0 0.3
2018-Apr-24 07:29N 09°25' W 079°57'0 0.0
2018-Apr-24 06:59N 09°25' W 079°57'0 0.0
2018-Apr-24 06:29N 09°25' W 079°57'0 0.0
2018-Apr-24 05:59N 09°25' W 079°57'0 0.0
2018-Apr-24 05:29N 09°25' W 079°57'0 0.0
2018-Apr-24 04:56N 09°25' W 079°57'0 0.0
2018-Apr-24 04:29N 09°25' W 079°57'0 0.0
2018-Apr-24 03:59N 09°25' W 079°57'0 0.0
2018-Apr-24 03:29N 09°25' W 079°57'0 0.0
2018-Apr-24 02:59N 09°25' W 079°57'0 0.0
2018-Apr-24 02:29N 09°25' W 079°57'0 0.0
2018-Apr-24 01:59N 09°25' W 079°57'0 0.0
2018-Apr-24 01:29N 09°25' W 079°57'0 0.0
2018-Apr-24 00:59N 09°25' W 079°57'0 0.0
2018-Apr-24 00:29N 09°25' W 079°57'0 0.0
2018-Apr-23 23:59N 09°25' W 079°57'0 0.0
2018-Apr-23 23:29N 09°25' W 079°57'0 0.0
2018-Apr-23 22:59N 09°25' W 079°57'0 0.0
2018-Apr-23 22:29N 09°25' W 079°57'0 0.0
2018-Apr-23 21:59N 09°25' W 079°57'0 0.0
2018-Apr-23 21:29N 09°25' W 079°57'0 0.0
2018-Apr-23 20:50N 09°25' W 079°57'0 0.0
2018-Apr-23 20:26N 09°25' W 079°57'0 0.0
2018-Apr-23 19:59N 09°25' W 079°57'0 0.0
2018-Apr-23 19:29N 09°25' W 079°57'0 0.0
2018-Apr-23 18:56N 09°25' W 079°57'0 0.0
2018-Apr-23 18:29N 09°25' W 079°57'0 0.0
2018-Apr-23 17:56N 09°25' W 079°57'0 0.0
2018-Apr-23 17:29N 09°25' W 079°57'0 0.0
2018-Apr-23 16:59N 09°25' W 079°57'0 0.0
2018-Apr-23 16:29N 09°25' W 079°57'0 0.0
2018-Apr-23 15:59N 09°25' W 079°57'0 0.0
2018-Apr-23 15:26N 09°25' W 079°57'0 0.0
2018-Apr-23 14:59N 09°25' W 079°57'0 0.0
2018-Apr-23 14:29N 09°25' W 079°57'0 0.4
2018-Apr-23 13:54N 09°26' W 079°57'1 3.5
2018-Apr-23 13:30N 09°27' W 079°56'3 5.3
2018-Apr-23 13:00N 09°29' W 079°55'  
2018-Apr-18 12:48N 27°08' W 093°49'1512.4
2018-Apr-18 11:38N 27°17' W 094°02'4410.6
2018-Apr-18 07:32N 27°55' W 094°25'111.2
2018-Apr-18 07:29N 27°56' W 094°25'2710.9
2018-Apr-18 05:03N 28°19' W 094°39'111.7
2018-Apr-18 04:58N 28°20' W 094°40'4511.7
2018-Apr-18 01:06N 28°53' W 095°15'410.7
2018-Apr-18 00:42N 28°56' W 095°18'0 0.0
2018-Apr-17 03:45N 28°57' W 095°19'4 9.4
2018-Apr-17 03:18N 28°54' W 095°15'16 7.2
2018-Apr-17 01:03N 28°50' W 094°57'511.7
2018-Apr-17 00:36N 28°53' W 094°52'29 7.0
2018-Apr-16 20:31N 29°21' W 094°47'112.0
2018-Apr-16 20:27N 29°22' W 094°48'510.7
2018-Apr-16 20:00N 29°26' W 094°50'611.2
2018-Apr-16 19:30N 29°31' W 094°53'510.9
2018-Apr-16 19:00N 29°35' W 094°56'3 6.6
2018-Apr-16 18:30N 29°37' W 094°60'1 2.3
2018-Apr-16 18:00N 29°37' W 095°01'0 0.0
2018-Apr-16 17:30N 29°37' W 095°01'0 0.0
2018-Apr-16 17:00N 29°37' W 095°01'0 0.0
2018-Apr-16 16:30N 29°37' W 095°01'0 0.0
2018-Apr-16 16:00N 29°37' W 095°01'0 0.0
2018-Apr-16 15:30N 29°37' W 095°01'0 0.0
2018-Apr-16 15:00N 29°37' W 095°01'0 0.0
2018-Apr-16 14:30N 29°37' W 095°01'0 0.0
2018-Apr-16 14:00N 29°37' W 095°01'0 0.0
2018-Apr-16 13:30N 29°37' W 095°01'0 0.0
2018-Apr-16 13:00N 29°37' W 095°01'0 0.0
2018-Apr-16 12:30N 29°37' W 095°01'0 0.0
2018-Apr-16 12:00N 29°37' W 095°01'0 0.0
2018-Apr-16 11:30N 29°37' W 095°01'0 0.0
2018-Apr-16 11:00N 29°37' W 095°01'0 0.0
2018-Apr-16 10:27N 29°37' W 095°01'0 0.0
2018-Apr-16 10:00N 29°37' W 095°01'0 0.0
2018-Apr-16 09:30N 29°37' W 095°01'0 0.0
2018-Apr-16 08:57N 29°37' W 095°01'0 0.0
2018-Apr-16 08:27N 29°37' W 095°01'0 0.0
2018-Apr-16 08:00N 29°37' W 095°01'0 0.0
2018-Apr-16 07:30N 29°37' W 095°01'0 0.0
2018-Apr-16 07:00N 29°37' W 095°01'0 0.0
2018-Apr-16 06:30N 29°37' W 095°01'0 0.0
2018-Apr-16 06:00N 29°37' W 095°01'0 0.0
2018-Apr-16 05:30N 29°37' W 095°01'0 0.0
2018-Apr-16 05:00N 29°37' W 095°01'0 0.0
2018-Apr-16 04:30N 29°37' W 095°01'0 0.0
2018-Apr-16 04:00N 29°37' W 095°01'0 0.0
2018-Apr-16 03:30N 29°37' W 095°01'0 0.0
2018-Apr-16 02:57N 29°37' W 095°01'0 0.0
2018-Apr-16 02:30N 29°37' W 095°01'0 0.0
2018-Apr-16 02:00N 29°37' W 095°01'0 0.0
2018-Apr-16 01:30N 29°37' W 095°01'0 0.0
2018-Apr-16 01:00N 29°37' W 095°01'0 0.0
2018-Apr-16 00:30N 29°37' W 095°01'0 0.0
2018-Apr-16 00:00N 29°37' W 095°01'0 0.0
2018-Apr-15 23:30N 29°37' W 095°01'0 0.0
2018-Apr-15 23:00N 29°37' W 095°01'0 0.0
2018-Apr-15 22:30N 29°37' W 095°01'0 0.0
2018-Apr-15 22:00N 29°37' W 095°01'0 0.0
2018-Apr-15 21:30N 29°37' W 095°01'0 0.0
2018-Apr-15 21:00N 29°37' W 095°01'0 0.0
2018-Apr-15 20:30N 29°37' W 095°01'0 0.0
2018-Apr-15 20:00N 29°37' W 095°01'0 0.0
2018-Apr-15 19:30N 29°37' W 095°01'0 0.0
2018-Apr-15 19:00N 29°37' W 095°01'0 0.0
2018-Apr-15 18:30N 29°37' W 095°01'0 0.0
2018-Apr-15 17:57N 29°37' W 095°01'0 0.0
2018-Apr-15 17:30N 29°37' W 095°01'0 0.0
2018-Apr-15 17:00N 29°37' W 095°01'0 0.0
2018-Apr-15 16:30N 29°37' W 095°01'0 0.0
2018-Apr-15 16:00N 29°37' W 095°01'0 0.0
2018-Apr-15 15:30N 29°37' W 095°01'0 0.0
2018-Apr-15 15:00N 29°37' W 095°01'0 0.0
2018-Apr-15 14:30N 29°37' W 095°01'0 0.0
2018-Apr-15 14:00N 29°37' W 095°01'0 0.0
2018-Apr-15 13:30N 29°37' W 095°01'0 0.0
2018-Apr-15 13:00N 29°37' W 095°01'0 0.0
2018-Apr-15 12:30N 29°37' W 095°01'0 0.0
2018-Apr-15 12:00N 29°37' W 095°01'0 0.0
2018-Apr-15 11:30N 29°37' W 095°01'0 0.0
2018-Apr-15 11:00N 29°37' W 095°01'0 0.0
2018-Apr-15 10:30N 29°37' W 095°01'0 0.0
2018-Apr-15 10:00N 29°37' W 095°01'0 0.0
2018-Apr-15 09:30N 29°37' W 095°01'0 0.0
2018-Apr-15 09:00N 29°37' W 095°01'0 0.0
2018-Apr-15 08:30N 29°37' W 095°01'0 0.0
2018-Apr-15 08:00N 29°37' W 095°01'0 0.0
2018-Apr-15 07:30N 29°37' W 095°01'0 0.0
2018-Apr-15 07:00N 29°37' W 095°01'0 0.0
2018-Apr-15 06:30N 29°37' W 095°01'0 0.0
2018-Apr-15 06:00N 29°37' W 095°01'0 0.0
2018-Apr-15 05:30N 29°37' W 095°01'0 0.0
2018-Apr-15 05:00N 29°37' W 095°01'0 0.0
2018-Apr-15 04:30N 29°37' W 095°01'0 0.0
2018-Apr-15 04:00N 29°37' W 095°01'0 0.0
2018-Apr-15 03:30N 29°37' W 095°01'0 0.0
2018-Apr-15 03:00N 29°37' W 095°01'0 0.0
2018-Apr-15 02:30N 29°37' W 095°01'0 0.0
2018-Apr-15 02:00N 29°37' W 095°01'0 0.0
2018-Apr-15 01:30N 29°37' W 095°01'0 0.0
2018-Apr-15 01:00N 29°37' W 095°01'0 0.0
2018-Apr-15 00:30N 29°37' W 095°01'0 0.0
2018-Apr-15 00:00N 29°37' W 095°01'0 0.0
2018-Apr-14 23:30N 29°37' W 095°01'0 0.0
2018-Apr-14 23:00N 29°37' W 095°01'0 0.0
2018-Apr-14 22:27N 29°37' W 095°01'0 0.0
2018-Apr-14 22:00N 29°37' W 095°01'0 0.0
2018-Apr-14 21:30N 29°37' W 095°01'0 0.0
2018-Apr-14 21:00N 29°37' W 095°01'0 0.0
2018-Apr-14 20:30N 29°37' W 095°01'0 0.0
2018-Apr-14 20:00N 29°37' W 095°01'0 0.0
2018-Apr-14 19:30N 29°37' W 095°01'  

Dump ship's entire track history